Time;durP1;ratioP1;P1;durP2;ratioP2;P2;SDS_P1;SDS_P2;PMS_P1;PMS_P2;Temp;Humidity;BMP_temperature;BMP_pressure;BME280_temperature;BME280_humidity;BME280_pressure;Samples;Min_cycle;Max_cycle;Signal;HPM_P1;HPM_P2
2022/04/26 03:36:11;;;;;;;43.20;12.25;;;;;;;;;;4940644;29;20082;-46
2022/04/26 03:38:47;;;;;;;29.23;12.20;;;;;;;;;;4978877;28;20073;-45
2022/04/26 03:41:15;;;;;;;29.17;11.52;;;;;;;;;;4994031;28;20042;-44
2022/04/26 03:43:42;;;;;;;30.67;12.27;;;;;;;;;;4994669;28;20113;-45
2022/04/26 03:46:09;;;;;;;26.70;11.40;;;;;;;;;;4995135;28;20092;-46
2022/04/26 03:48:36;;;;;;;32.20;12.05;;;;;;;;;;4994667;28;20034;-44
2022/04/26 03:51:03;;;;;;;30.45;11.23;;;;;;;;;;4994933;28;20030;-44
2022/04/26 03:53:30;;;;;;;31.83;11.13;;;;;;;;;;4994055;28;20370;-44
2022/04/26 03:55:56;;;;;;;27.20;11.13;;;;;;;;;;4994938;28;20029;-44
2022/04/26 03:58:25;;;;;;;30.92;10.80;;;;;;;;;;4994276;28;20026;-44
2022/04/26 04:00:52;;;;;;;21.75;10.63;;;;;;;;;;4994620;28;20401;-44
2022/04/26 04:03:19;;;;;;;26.15;10.80;;;;;;;;;;4994874;28;20536;-44
2022/04/26 04:05:46;;;;;;;20.90;10.27;;;;;;;;;;4992792;28;20400;-44
2022/04/26 04:08:12;;;;;;;29.13;10.77;;;;;;;;;;4994259;28;20038;-44
2022/04/26 04:10:40;;;;;;;25.20;10.18;;;;;;;;;;4994406;28;20049;-44
2022/04/26 04:13:07;;;;;;;25.60;10.73;;;;;;;;;;4994384;28;20182;-44
2022/04/26 04:15:34;;;;;;;29.30;10.60;;;;;;;;;;4994821;28;20026;-44
2022/04/26 04:18:01;;;;;;;26.17;11.10;;;;;;;;;;4994025;28;20042;-44
2022/04/26 04:20:29;;;;;;;24.95;10.43;;;;;;;;;;4993757;28;20530;-44
2022/04/26 04:22:57;;;;;;;19.40;9.80;;;;;;;;;;4994434;28;20034;-44
2022/04/26 04:25:24;;;;;;;29.27;10.32;;;;;;;;;;4993685;28;20058;-44
2022/04/26 04:27:51;;;;;;;31.85;10.18;;;;;;;;;;4994605;28;20030;-44
2022/04/26 04:30:18;;;;;;;24.42;10.75;;;;;;;;;;4993449;28;20022;-45
2022/04/26 04:32:45;;;;;;;23.67;9.90;;;;;;;;;;4994236;28;20179;-44
2022/04/26 04:35:12;;;;;;;22.30;9.38;;;;;;;;;;4994092;28;20036;-44
2022/04/26 04:37:39;;;;;;;28.65;9.43;;;;;;;;;;4994155;28;20448;-44
2022/04/26 04:40:06;;;;;;;24.00;9.27;;;;;;;;;;4993067;28;20038;-44
2022/04/26 04:42:33;;;;;;;25.45;10.35;;;;;;;;;;4993897;28;20023;-44
2022/04/26 04:45:02;;;;;;;20.58;8.98;;;;;;;;;;4992212;28;20392;-44
2022/04/26 04:47:29;;;;;;;23.00;10.00;;;;;;;;;;4976977;28;20042;-44
2022/04/26 04:49:55;;;;;;;20.75;9.10;;;;;;;;;;4993177;28;20049;-44
2022/04/26 04:52:22;;;;;;;20.30;9.48;;;;;;;;;;4994031;28;20045;-44
2022/04/26 04:54:49;;;;;;;20.83;8.98;;;;;;;;;;4992983;28;20045;-44
2022/04/26 04:57:16;;;;;;;24.02;9.43;;;;;;;;;;4993820;28;20560;-45
2022/04/26 04:59:43;;;;;;;18.88;8.07;;;;;;;;;;4992815;28;20571;-44
2022/04/26 05:02:10;;;;;;;18.17;8.30;;;;;;;;;;4993883;28;20026;-45
2022/04/26 05:04:39;;;;;;;17.00;8.25;;;;;;;;;;4993121;28;20050;-44
2022/04/26 05:07:07;;;;;;;20.27;8.00;;;;;;;;;;4993266;28;20480;-44
2022/04/26 05:09:34;;;;;;;21.52;8.65;;;;;;;;;;4993207;28;20043;-45
2022/04/26 05:12:02;;;;;;;18.95;8.63;;;;;;;;;;4992593;28;20030;-44
2022/04/26 05:14:29;;;;;;;17.05;7.80;;;;;;;;;;4993643;28;20037;-44
2022/04/26 05:16:56;;;;;;;15.35;7.75;;;;;;;;;;4992893;28;20030;-45
2022/04/26 05:19:22;;;;;;;17.95;8.30;;;;;;;;;;4993282;28;20042;-44
2022/04/26 05:21:49;;;;;;;14.98;7.57;;;;;;;;;;4992706;28;20041;-44
2022/04/26 05:27:02;;;;;;;14.73;7.57;;;;;;;;;;4993099;28;20053;-44
2022/04/26 05:29:28;;;;;;;13.88;7.07;;;;;;;;;;4993157;28;20030;-44
2022/04/26 05:31:55;;;;;;;15.77;6.35;;;;;;;;;;4990911;28;20033;-44
2022/04/26 05:34:23;;;;;;;14.23;7.43;;;;;;;;;;4992858;28;20026;-44
2022/04/26 05:36:49;;;;;;;13.52;7.30;;;;;;;;;;4992652;28;20022;-44
2022/04/26 05:39:16;;;;;;;14.60;7.07;;;;;;;;;;4993016;28;20048;-45
2022/04/26 05:41:43;;;;;;;17.42;6.45;;;;;;;;;;4992583;28;20113;-44
2022/04/26 05:44:10;;;;;;;15.20;6.88;;;;;;;;;;4992594;28;20368;-45
2022/04/26 05:46:37;;;;;;;16.95;7.30;;;;;;;;;;4992557;28;20026;-44
2022/04/26 05:49:04;;;;;;;14.90;6.72;;;;;;;;;;4992625;28;20026;-44
2022/04/26 05:51:31;;;;;;;14.45;6.53;;;;;;;;;;4993043;28;20022;-44
2022/04/26 05:53:58;;;;;;;15.15;7.00;;;;;;;;;;4992323;28;20172;-44
2022/04/26 05:56:25;;;;;;;15.63;6.55;;;;;;;;;;4992654;28;20507;-45
2022/04/26 05:58:52;;;;;;;14.45;7.13;;;;;;;;;;4991920;28;20034;-44
2022/04/26 06:01:19;;;;;;;14.38;6.28;;;;;;;;;;4993038;28;20049;-44
2022/04/26 06:03:46;;;;;;;15.65;6.55;;;;;;;;;;4992839;28;20053;-44
2022/04/26 06:06:13;;;;;;;14.50;6.05;;;;;;;;;;4992521;28;20126;-45
2022/04/26 06:08:40;;;;;;;15.20;6.15;;;;;;;;;;4992458;28;20049;-45
2022/04/26 06:11:07;;;;;;;12.40;6.20;;;;;;;;;;4991701;28;20038;-44
2022/04/26 06:13:34;;;;;;;12.80;6.53;;;;;;;;;;4992803;28;20046;-44
2022/04/26 06:16:01;;;;;;;14.93;6.20;;;;;;;;;;4992303;28;20096;-45
2022/04/26 06:18:28;;;;;;;10.73;5.18;;;;;;;;;;4992408;28;20026;-45
2022/04/26 06:20:55;;;;;;;12.68;6.25;;;;;;;;;;4995217;28;20037;-45
2022/04/26 06:23:22;;;;;;;11.50;5.95;;;;;;;;;;4996014;28;20392;-44
2022/04/26 06:25:48;;;;;;;11.70;5.32;;;;;;;;;;4996607;28;20427;-45
2022/04/26 06:28:16;;;;;;;13.07;6.03;;;;;;;;;;4996393;28;20030;-46
2022/04/26 06:30:43;;;;;;;9.93;5.28;;;;;;;;;;4995635;28;20559;-44
2022/04/26 18:30:24;;;;;;;60.05;37.53;;;;;;;;;;5033216;28;20065;-48
2022/04/26 18:32:51;;;;;;;52.97;33.95;;;;;;;;;;5053960;28;20524;-45
2022/04/26 18:35:18;;;;;;;55.13;34.40;;;;;;;;;;5054437;28;20394;-46
2022/04/26 18:37:46;;;;;;;53.88;33.30;;;;;;;;;;5056694;28;20351;-46
2022/04/26 18:40:13;;;;;;;53.53;31.90;;;;;;;;;;5056840;28;20033;-46
2022/04/26 18:42:40;;;;;;;55.28;32.90;;;;;;;;;;5055042;28;20554;-48
2022/04/26 18:45:07;;;;;;;55.38;32.85;;;;;;;;;;5056772;28;20032;-48
2022/04/26 18:47:34;;;;;;;59.90;31.77;;;;;;;;;;5057280;28;20534;-39
2022/04/26 18:50:01;;;;;;;51.53;32.03;;;;;;;;;;5056494;28;20116;-40
2022/04/26 18:52:28;;;;;;;55.75;33.22;;;;;;;;;;5057400;28;20517;-45
2022/04/26 18:54:55;;;;;;;54.80;33.13;;;;;;;;;;5055991;28;20056;-41
2022/04/26 18:57:23;;;;;;;49.78;31.95;;;;;;;;;;5056483;28;20158;-43
2022/04/26 18:59:50;;;;;;;51.30;31.35;;;;;;;;;;5056870;28;20794;-43
2022/04/26 19:02:19;;;;;;;46.20;32.10;;;;;;;;;;5057038;28;20025;-46
2022/04/26 19:04:46;;;;;;;55.05;32.80;;;;;;;;;;5056195;28;20035;-48
2022/04/26 19:07:13;;;;;;;52.90;31.92;;;;;;;;;;5056876;28;20033;-45
2022/04/26 19:12:15;;;;;;;55.72;33.13;;;;;;;;;;5056242;28;20491;-50
2022/04/26 19:12:26;;;;;;;49.65;31.40;;;;;;;;;;5056205;28;20153;-41
2022/04/26 19:14:53;;;;;;;49.67;30.52;;;;;;;;;;5057295;28;20526;-42
2022/04/26 19:17:21;;;;;;;50.05;31.83;;;;;;;;;;5055001;28;20035;-40
2022/04/26 19:19:48;;;;;;;45.72;30.25;;;;;;;;;;5057121;28;20125;-43
2022/04/26 19:22:16;;;;;;;43.30;29.88;;;;;;;;;;5055636;28;20025;-42
2022/04/26 19:24:43;;;;;;;45.58;30.10;;;;;;;;;;5057236;28;20029;-41
2022/04/26 19:27:10;;;;;;;46.47;28.88;;;;;;;;;;5053620;28;20027;-44
2022/04/26 19:29:37;;;;;;;56.05;29.77;;;;;;;;;;5053288;28;20122;-45
2022/04/26 19:32:04;;;;;;;51.35;29.35;;;;;;;;;;5053283;28;20122;-44
2022/04/26 19:34:31;;;;;;;41.80;28.00;;;;;;;;;;5053225;28;20561;-44
2022/04/26 19:36:58;;;;;;;45.97;28.55;;;;;;;;;;5052484;28;20036;-45
2022/04/26 19:39:25;;;;;;;39.67;27.23;;;;;;;;;;5052807;28;20075;-45
2022/04/26 19:41:52;;;;;;;44.53;28.20;;;;;;;;;;5052342;28;20566;-44
2022/04/26 19:44:18;;;;;;;43.90;27.38;;;;;;;;;;5053101;28;20025;-44
2022/04/26 19:46:45;;;;;;;38.65;25.92;;;;;;;;;;5052991;28;20044;-46
2022/04/26 19:49:12;;;;;;;43.03;26.48;;;;;;;;;;5052374;28;20490;-44
2022/04/26 19:51:40;;;;;;;43.60;26.83;;;;;;;;;;5052466;28;20766;-45
2022/04/26 19:54:09;;;;;;;41.38;25.58;;;;;;;;;;5053021;28;20073;-46
2022/04/26 19:56:36;;;;;;;44.38;26.65;;;;;;;;;;5053003;28;20068;-44
2022/04/26 19:59:03;;;;;;;40.63;26.00;;;;;;;;;;5052199;28;20033;-46
2022/04/26 20:01:30;;;;;;;33.63;24.13;;;;;;;;;;5051822;28;20064;-46
2022/04/26 20:03:57;;;;;;;38.00;23.95;;;;;;;;;;5053703;28;20075;-44
2022/04/26 20:06:24;;;;;;;35.50;23.83;;;;;;;;;;5053559;28;20040;-47
2022/04/26 20:08:51;;;;;;;35.00;22.67;;;;;;;;;;5053335;28;20029;-46
2022/04/26 20:11:18;;;;;;;34.00;22.20;;;;;;;;;;5053641;28;20060;-44
2022/04/26 20:13:46;;;;;;;32.85;21.27;;;;;;;;;;5051682;28;20045;-43
2022/04/26 20:16:16;;;;;;;38.00;21.98;;;;;;;;;;5053451;28;20080;-42
2022/04/26 20:18:43;;;;;;;33.63;20.73;;;;;;;;;;5051340;28;20040;-40
2022/04/26 20:21:10;;;;;;;33.88;21.98;;;;;;;;;;5052412;28;20055;-43
2022/04/26 20:23:37;;;;;;;40.13;21.45;;;;;;;;;;5050660;28;20056;-42
2022/04/26 20:31:35;;;;;;;37.75;22.05;;;;;;;;;;5051719;28;20461;-43
2022/04/26 20:34:03;;;;;;;34.15;21.67;;;;;;;;;;5052157;28;20049;-44
2022/04/26 20:36:30;;;;;;;37.42;22.25;;;;;;;;;;5051843;28;20056;-43
2022/04/26 20:38:57;;;;;;;34.33;21.13;;;;;;;;;;5051233;28;20063;-40
2022/04/26 20:41:24;;;;;;;31.80;21.50;;;;;;;;;;5051463;28;20025;-42
2022/04/26 20:43:51;;;;;;;33.40;21.23;;;;;;;;;;5051796;28;20382;-42
2022/04/26 20:46:18;;;;;;;35.55;21.20;;;;;;;;;;5052027;28;20029;-43
2022/04/26 20:48:45;;;;;;;40.45;21.60;;;;;;;;;;5040384;28;20395;-43
2022/04/26 20:51:12;;;;;;;40.20;21.63;;;;;;;;;;5040495;28;20066;-40
2022/04/26 20:53:39;;;;;;;34.80;20.85;;;;;;;;;;5046036;28;20041;-44
2022/04/26 20:56:06;;;;;;;32.97;20.10;;;;;;;;;;5046503;28;20021;-40
2022/04/26 20:58:33;;;;;;;34.15;21.15;;;;;;;;;;5038940;28;20029;-43
2022/04/26 21:01:00;;;;;;;36.95;21.45;;;;;;;;;;5032687;28;20033;-40
2022/04/26 21:03:27;;;;;;;32.60;21.30;;;;;;;;;;5038871;28;20029;-41
2022/04/26 21:05:54;;;;;;;34.60;21.52;;;;;;;;;;5042413;28;20024;-41
2022/04/26 21:08:21;;;;;;;38.42;21.30;;;;;;;;;;5037053;28;20132;-47
2022/04/26 21:10:49;;;;;;;40.90;23.02;;;;;;;;;;5041179;28;20067;-45
2022/04/26 21:13:27;;;;;;;47.25;23.02;;;;;;;;;;5036541;28;20041;-46
2022/04/26 21:15:55;;;;;;;39.08;23.30;;;;;;;;;;5042440;28;20085;-46
2022/04/26 21:18:22;;;;;;;42.17;23.35;;;;;;;;;;5040284;28;20434;-44
2022/04/26 21:20:49;;;;;;;35.53;22.27;;;;;;;;;;5039016;28;20037;-48
2022/04/26 21:23:16;;;;;;;38.45;22.60;;;;;;;;;;5031305;28;20021;-44
2022/04/26 21:25:43;;;;;;;37.45;20.88;;;;;;;;;;5031587;28;20172;-48
2022/04/26 21:28:11;;;;;;;34.80;21.92;;;;;;;;;;5031063;28;20659;-48
2022/04/26 21:30:38;;;;;;;36.58;21.80;;;;;;;;;;5031027;28;20076;-44
2022/04/26 21:33:05;;;;;;;36.75;20.95;;;;;;;;;;5031413;28;20044;-48
2022/04/26 21:35:32;;;;;;;28.55;19.83;;;;;;;;;;5031581;28;20022;-44
2022/04/26 21:37:59;;;;;;;31.85;20.00;;;;;;;;;;5030775;28;20490;-45
2022/04/26 21:40:26;;;;;;;28.95;19.10;;;;;;;;;;5031885;28;20029;-48
2022/04/26 21:42:55;;;;;;;30.95;19.75;;;;;;;;;;5030607;28;20029;-45
2022/04/26 21:45:22;;;;;;;29.70;20.08;;;;;;;;;;5031196;28;20486;-48
2022/04/26 21:47:49;;;;;;;28.83;18.27;;;;;;;;;;5031752;28;20434;-45
2022/04/26 21:53:01;;;;;;;35.72;17.92;;;;;;;;;;5031572;28;20053;-44
2022/04/26 21:55:28;;;;;;;28.35;17.50;;;;;;;;;;5034105;28;20025;-48
2022/04/26 21:57:55;;;;;;;26.98;16.73;;;;;;;;;;5047136;28;20040;-45
2022/04/26 22:00:25;;;;;;;28.58;17.10;;;;;;;;;;5050717;28;20139;-48
2022/04/26 22:02:52;;;;;;;28.35;17.35;;;;;;;;;;5043633;28;20017;-48
2022/04/26 22:05:20;;;;;;;27.77;16.20;;;;;;;;;;5038212;28;20037;-44
2022/04/26 22:07:47;;;;;;;23.45;15.60;;;;;;;;;;5035708;28;20035;-48
2022/04/26 22:10:14;;;;;;;22.58;15.43;;;;;;;;;;5029627;28;20494;-48
2022/04/26 22:12:41;;;;;;;23.70;15.52;;;;;;;;;;5035890;28;20499;-48
2022/04/26 22:15:08;;;;;;;27.95;16.35;;;;;;;;;;5029359;28;20071;-41
2022/04/26 22:17:36;;;;;;;25.13;15.82;;;;;;;;;;5039152;28;20017;-48
2022/04/26 22:20:03;;;;;;;27.90;14.57;;;;;;;;;;5037784;28;20482;-44
2022/04/26 22:22:30;;;;;;;24.40;13.40;;;;;;;;;;5048586;28;20044;-46
2022/04/26 22:24:57;;;;;;;30.27;14.63;;;;;;;;;;5050066;28;20075;-45
2022/04/26 22:27:24;;;;;;;34.97;15.23;;;;;;;;;;5049017;28;20530;-45
2022/04/26 22:29:51;;;;;;;28.33;13.57;;;;;;;;;;5048572;28;20033;-46
2022/04/26 22:32:18;;;;;;;27.17;13.82;;;;;;;;;;5048322;28;20064;-44
2022/04/26 22:34:45;;;;;;;23.63;13.68;;;;;;;;;;5048698;28;20037;-42
2022/04/26 22:37:12;;;;;;;28.27;13.38;;;;;;;;;;5037357;28;20035;-45
2022/04/26 22:39:39;;;;;;;22.73;12.57;;;;;;;;;;5037762;28;20799;-46
2022/04/26 22:42:06;;;;;;;19.90;12.55;;;;;;;;;;5038213;28;20057;-46
2022/04/26 22:44:35;;;;;;;24.65;12.02;;;;;;;;;;5037790;28;20072;-45
2022/04/26 22:47:02;;;;;;;24.60;12.13;;;;;;;;;;5030737;28;20025;-45
2022/04/26 22:49:29;;;;;;;26.65;13.18;;;;;;;;;;5030535;28;20049;-45
2022/04/26 22:51:56;;;;;;;17.88;11.52;;;;;;;;;;5030370;28;20022;-45
2022/04/26 22:54:23;;;;;;;24.33;11.77;;;;;;;;;;5035484;28;20045;-45
2022/04/26 22:56:50;;;;;;;21.10;10.93;;;;;;;;;;5038114;28;20048;-45
2022/04/26 22:59:17;;;;;;;20.90;10.25;;;;;;;;;;5025289;28;20266;-44
2022/04/26 23:01:44;;;;;;;18.85;11.35;;;;;;;;;;5033861;28;20116;-45
2022/04/26 23:04:11;;;;;;;27.35;12.30;;;;;;;;;;5042264;28;20037;-43
2022/04/26 23:06:38;;;;;;;28.05;11.98;;;;;;;;;;5041083;28;20556;-41
2022/04/26 23:09:06;;;;;;;22.98;11.20;;;;;;;;;;5041994;28;20084;-41
2022/04/26 23:11:33;;;;;;;28.23;10.32;;;;;;;;;;5041826;28;20033;-39
2022/04/26 23:14:00;;;;;;;35.45;10.32;;;;;;;;;;5041198;28;20025;-42
2022/04/26 23:16:27;;;;;;;54.13;10.90;;;;;;;;;;5042238;28;20075;-42
2022/04/26 23:18:54;;;;;;;58.97;10.50;;;;;;;;;;5040138;28;20033;-40
2022/04/26 23:21:21;;;;;;;53.42;10.15;;;;;;;;;;5049871;28;20029;-40
2022/04/26 23:23:48;;;;;;;69.15;10.80;;;;;;;;;;5052753;28;20032;-44
2022/04/26 23:26:15;;;;;;;43.85;9.75;;;;;;;;;;5052578;28;20111;-45
2022/04/26 23:28:42;;;;;;;36.53;9.35;;;;;;;;;;5041001;28;20032;-47
2022/04/26 23:31:09;;;;;;;43.30;8.93;;;;;;;;;;5040647;28;20056;-41
2022/04/26 23:36:21;;;;;;;47.17;9.27;;;;;;;;;;5031916;28;20095;-41
2022/04/26 23:38:48;;;;;;;36.83;8.27;;;;;;;;;;5031641;28;20040;-40
2022/04/26 23:41:15;;;;;;;38.40;8.07;;;;;;;;;;5031926;28;20037;-40
2022/04/26 23:43:42;;;;;;;37.03;7.95;;;;;;;;;;5014514;28;20032;-43
2022/04/26 23:46:09;;;;;;;41.83;7.78;;;;;;;;;;5034535;28;20448;-44
2022/04/26 23:48:36;;;;;;;28.50;8.65;;;;;;;;;;5047942;28;20044;-45
2022/04/26 23:53:48;;;;;;;50.20;15.10;;;;;;;;;;5040356;28;20530;-44
2022/04/26 23:56:15;;;;;;;64.18;19.10;;;;;;;;;;5037594;28;20045;-43
2022/04/26 23:58:47;;;;;;;74.57;22.10;;;;;;;;;;5031862;28;20503;-44
